Time;durP1;ratioP1;P1;durP2;ratioP2;P2;SDS_P1;SDS_P2;PMS_P1;PMS_P2;Temp;Humidity;BMP_temperature;BMP_pressure;BME280_temperature;BME280_humidity;BME280_pressure;Samples;Min_cycle;Max_cycle;Signal;HPM_P1;HPM_P2
2022/02/25 00:00:47;;;;;;;5.97;1.45;;;9.70;1.00;;;;;;5038059;28;20060;-75
2022/02/25 00:03:14;;;;;;;6.72;1.95;;;9.70;1.00;;;;;;5037931;28;20038;-75
2022/02/25 00:05:40;;;;;;;7.07;1.85;;;9.70;1.00;;;;;;5037479;28;20041;-75
2022/02/25 00:08:07;;;;;;;4.68;1.83;;;9.70;1.00;;;;;;5037589;28;20128;-75
2022/02/25 00:10:33;;;;;;;7.70;2.22;;;9.70;1.00;;;;;;5037491;28;20116;-75
2022/02/25 00:12:59;;;;;;;9.20;2.13;;;9.70;1.00;;;;;;5038040;28;20041;-75
2022/02/25 00:15:25;;;;;;;7.43;2.28;;;9.70;1.00;;;;;;5037660;28;20056;-74
2022/02/25 00:17:51;;;;;;;8.13;2.33;;;9.80;1.00;;;;;;5037396;28;20436;-73
2022/02/25 00:20:17;;;;;;;6.45;2.05;;;9.80;1.00;;;;;;5036967;28;20128;-75
2022/02/25 00:22:43;;;;;;;4.70;1.65;;;9.80;1.00;;;;;;5037068;28;20076;-75
2022/02/25 00:25:10;;;;;;;5.60;2.00;;;9.80;1.00;;;;;;5037173;28;20038;-75
2022/02/25 00:27:38;;;;;;;6.25;1.80;;;9.80;1.00;;;;;;5037060;28;20145;-75
2022/02/25 00:30:05;;;;;;;8.55;1.80;;;9.80;1.00;;;;;;5036692;28;20120;-75
2022/02/25 00:32:31;;;;;;;6.38;2.35;;;9.80;1.00;;;;;;5037111;28;20565;-75
2022/02/25 00:34:57;;;;;;;5.15;2.13;;;9.80;1.00;;;;;;5036968;28;20049;-75
2022/02/25 00:37:22;;;;;;;4.72;2.00;;;9.80;1.00;;;;;;5036816;28;20040;-75
2022/02/25 00:39:48;;;;;;;3.97;1.92;;;9.70;1.00;;;;;;5037455;28;20123;-75
2022/02/25 00:42:14;;;;;;;6.75;2.13;;;9.80;1.00;;;;;;5019089;28;20034;-74
2022/02/25 00:44:40;;;;;;;4.97;1.73;;;9.80;1.00;;;;;;5036433;28;20045;-74
2022/02/25 00:47:06;;;;;;;5.05;2.10;;;9.90;1.00;;;;;;5037142;28;20052;-74
2022/02/25 00:49:32;;;;;;;5.78;1.90;;;9.80;1.00;;;;;;5037307;28;20087;-75
2022/02/25 00:51:58;;;;;;;4.32;1.60;;;9.70;1.00;;;;;;5035708;28;20045;-75
2022/02/25 00:54:24;;;;;;;7.45;1.80;;;9.60;1.00;;;;;;5036566;28;20431;-74
2022/02/25 00:56:50;;;;;;;3.72;1.95;;;9.60;1.00;;;;;;5036675;28;20120;-75
2022/02/25 00:59:15;;;;;;;6.43;2.00;;;9.50;1.00;;;;;;5035991;28;20073;-75
2022/02/25 01:01:42;;;;;;;7.80;2.63;;;9.60;1.00;;;;;;5036243;28;20034;-74
2022/02/25 01:04:08;;;;;;;7.03;2.17;;;9.50;1.00;;;;;;5036098;28;20491;-75
2022/02/25 01:06:34;;;;;;;6.72;2.42;;;9.50;1.00;;;;;;5036474;28;20041;-75
2022/02/25 01:09:00;;;;;;;6.30;2.70;;;9.60;1.00;;;;;;5036144;28;20037;-74
2022/02/25 01:11:25;;;;;;;6.53;2.13;;;9.70;1.00;;;;;;5036465;28;20048;-75
2022/02/25 01:13:51;;;;;;;6.30;2.08;;;9.70;1.00;;;;;;5036230;28;20120;-75
2022/02/25 01:16:17;;;;;;;3.15;1.48;;;9.70;1.00;;;;;;5035935;28;20077;-75
2022/02/25 01:18:43;;;;;;;5.30;2.08;;;9.70;1.00;;;;;;5036526;28;20037;-75
2022/02/25 01:21:09;;;;;;;7.57;1.90;;;9.70;1.00;;;;;;5035874;28;20044;-75
2022/02/25 01:23:35;;;;;;;6.82;1.60;;;9.70;1.00;;;;;;5035872;28;20041;-74
2022/02/25 01:26:01;;;;;;;6.15;2.10;;;9.80;1.00;;;;;;5035788;28;20056;-75
2022/02/25 01:28:27;;;;;;;5.15;1.77;;;9.80;1.00;;;;;;5036068;28;20048;-75
2022/02/25 01:30:53;;;;;;;5.93;1.90;;;9.70;1.00;;;;;;5036107;28;20041;-75
2022/02/25 01:33:19;;;;;;;4.32;1.23;;;9.70;1.00;;;;;;5035686;28;20037;-75
2022/02/25 01:35:45;;;;;;;6.60;1.67;;;9.80;1.00;;;;;;5035524;28;20504;-75
2022/02/25 01:38:11;;;;;;;5.25;1.88;;;9.70;1.00;;;;;;5035588;28;20041;-75
2022/02/25 01:40:37;;;;;;;2.90;1.45;;;9.70;1.00;;;;;;5035996;28;20068;-75
2022/02/25 01:43:03;;;;;;;5.05;1.65;;;9.70;1.00;;;;;;5035563;28;20030;-75
2022/02/25 01:45:32;;;;;;;6.57;2.03;;;9.70;1.00;;;;;;5035629;28;20049;-75
2022/02/25 01:47:58;;;;;;;7.60;1.60;;;9.70;1.00;;;;;;5035730;28;20068;-74
2022/02/25 01:50:24;;;;;;;7.20;1.67;;;9.70;1.00;;;;;;5035707;28;20076;-75
2022/02/25 01:52:52;;;;;;;4.10;1.48;;;9.70;1.00;;;;;;5035848;28;20550;-75
2022/02/25 01:55:18;;;;;;;5.25;1.70;;;9.60;1.00;;;;;;5035183;28;20081;-75
2022/02/25 01:57:44;;;;;;;5.72;1.65;;;9.50;1.00;;;;;;5035228;28;20072;-75
2022/02/25 02:00:11;;;;;;;4.45;1.45;;;9.50;1.00;;;;;;5035272;28;20095;-75
2022/02/25 02:02:36;;;;;;;5.50;1.60;;;9.40;1.00;;;;;;5035727;28;20582;-75
2022/02/25 02:05:02;;;;;;;4.32;1.88;;;9.40;1.00;;;;;;5035597;28;20123;-75
2022/02/25 02:07:28;;;;;;;3.67;1.58;;;9.40;1.00;;;;;;5036165;28;20039;-75
2022/02/25 02:09:54;;;;;;;5.47;1.52;;;9.40;1.00;;;;;;5036017;28;20037;-72
2022/02/25 02:12:20;;;;;;;3.67;1.30;;;9.40;1.00;;;;;;5035792;28;20041;-73
2022/02/25 02:14:48;;;;;;;5.57;1.98;;;9.40;1.00;;;;;;5035159;28;20053;-75
2022/02/25 02:17:14;;;;;;;6.97;1.95;;;9.50;1.00;;;;;;5035437;28;20044;-75
2022/02/25 02:19:40;;;;;;;4.72;1.90;;;9.40;1.00;;;;;;5035651;28;20090;-75
2022/02/25 02:22:06;;;;;;;3.97;1.70;;;9.40;1.00;;;;;;5035076;28;20124;-75
2022/02/25 02:24:32;;;;;;;3.80;1.30;;;9.40;1.00;;;;;;5035043;28;20049;-74
2022/02/25 02:26:59;;;;;;;3.25;1.10;;;9.30;1.00;;;;;;5035305;28;20029;-74
2022/02/25 02:29:24;;;;;;;3.88;1.38;;;9.30;1.00;;;;;;5035412;28;20071;-74
2022/02/25 02:31:51;;;;;;;3.45;1.33;;;9.30;1.00;;;;;;5034935;28;20034;-74
2022/02/25 02:34:18;;;;;;;4.15;1.52;;;9.30;1.00;;;;;;5034985;28;20049;-74
2022/02/25 02:36:45;;;;;;;4.38;1.10;;;9.20;1.00;;;;;;5034835;28;20033;-74
2022/02/25 02:39:11;;;;;;;3.92;1.08;;;9.20;1.00;;;;;;5034849;28;20041;-74
2022/02/25 02:41:37;;;;;;;5.47;1.95;;;9.10;1.00;;;;;;5035036;28;20045;-74
2022/02/25 02:44:04;;;;;;;5.53;2.00;;;9.10;1.00;;;;;;5035164;28;20543;-74
2022/02/25 02:46:30;;;;;;;3.63;1.20;;;9.10;1.00;;;;;;5034691;28;20041;-74
2022/02/25 02:48:56;;;;;;;5.55;1.15;;;9.10;1.00;;;;;;5035457;28;20120;-72
2022/02/25 02:51:22;;;;;;;3.10;1.20;;;9.20;1.00;;;;;;5034974;28;20076;-74
2022/02/25 02:53:48;;;;;;;4.10;1.10;;;9.20;1.00;;;;;;5017131;28;20377;-74
2022/02/25 02:56:14;;;;;;;3.95;0.93;;;9.30;1.00;;;;;;5034531;28;20033;-74
2022/02/25 02:58:40;;;;;;;3.58;1.00;;;9.30;1.00;;;;;;5035345;28;20040;-74
2022/02/25 03:01:06;;;;;;;2.50;0.80;;;9.30;1.00;;;;;;5033881;28;20447;-74
2022/02/25 03:03:32;;;;;;;5.65;1.23;;;9.40;1.00;;;;;;5034613;28;20515;-75
2022/02/25 03:05:58;;;;;;;4.93;1.17;;;9.30;1.00;;;;;;5034770;28;20547;-75
2022/02/25 03:08:24;;;;;;;2.25;0.90;;;9.20;1.00;;;;;;5034465;28;20033;-75
2022/02/25 03:10:51;;;;;;;4.13;0.95;;;9.20;1.00;;;;;;5034542;28;20049;-75
2022/02/25 03:13:18;;;;;;;2.90;0.93;;;9.20;1.00;;;;;;5034307;28;20046;-75
2022/02/25 03:15:46;;;;;;;2.67;1.10;;;9.20;1.00;;;;;;5037920;28;20053;-74
2022/02/25 03:18:15;;;;;;;4.30;0.93;;;9.20;1.00;;;;;;5038520;28;20036;-75
2022/02/25 03:20:41;;;;;;;2.28;0.90;;;9.10;1.00;;;;;;5038623;28;20040;-75
2022/02/25 03:23:07;;;;;;;1.90;0.95;;;9.10;1.00;;;;;;5038817;28;20060;-75
2022/02/25 03:25:33;;;;;;;4.25;1.17;;;9.20;1.00;;;;;;5038058;28;20496;-75
2022/02/25 03:27:58;;;;;;;2.85;1.00;;;9.20;1.00;;;;;;5037985;28;20033;-75
2022/02/25 03:30:24;;;;;;;1.65;1.00;;;9.10;1.00;;;;;;5038411;28;20435;-75
2022/02/25 03:32:51;;;;;;;2.03;0.90;;;9.10;1.00;;;;;;5020482;28;20411;-75
2022/02/25 03:35:17;;;;;;;1.65;0.70;;;9.10;1.00;;;;;;5037738;28;20053;-75
2022/02/25 03:37:44;;;;;;;3.72;1.02;;;9.00;1.00;;;;;;5038264;28;20037;-75
2022/02/25 03:40:11;;;;;;;1.45;1.00;;;9.00;1.00;;;;;;5038307;28;20045;-74
2022/02/25 03:42:38;;;;;;;3.95;1.17;;;9.00;1.00;;;;;;5038324;28;20044;-75
2022/02/25 03:45:04;;;;;;;1.30;0.85;;;9.00;1.00;;;;;;5037575;28;20045;-75
2022/02/25 03:47:34;;;;;;;3.10;1.30;;;9.10;1.00;;;;;;5038273;28;20037;-75
2022/02/25 03:50:01;;;;;;;2.70;1.50;;;9.00;1.00;;;;;;5038136;28;20045;-75
2022/02/25 03:52:27;;;;;;;4.85;1.50;;;9.00;1.00;;;;;;5037857;28;20279;-75
2022/02/25 03:54:53;;;;;;;2.38;1.20;;;9.00;1.00;;;;;;5037920;28;20567;-75
2022/02/25 03:57:19;;;;;;;5.25;1.48;;;9.00;1.00;;;;;;5037981;28;20103;-74
2022/02/25 03:59:45;;;;;;;3.88;1.60;;;8.90;1.00;;;;;;5037730;28;20520;-75
2022/02/25 04:02:11;;;;;;;4.30;1.33;;;8.80;1.00;;;;;;5037484;28;20044;-75
2022/02/25 04:04:36;;;;;;;3.60;1.67;;;8.80;1.00;;;;;;5037857;28;20454;-74
2022/02/25 04:07:02;;;;;;;4.93;1.42;;;8.70;1.00;;;;;;5037873;28;20041;-75
2022/02/25 04:09:28;;;;;;;4.32;1.80;;;8.60;1.00;;;;;;5037892;28;20037;-75
2022/02/25 04:11:54;;;;;;;4.97;1.58;;;8.60;1.00;;;;;;5037520;28;20095;-75
2022/02/25 04:14:22;;;;;;;3.90;1.30;;;8.70;1.00;;;;;;5036928;28;20049;-74
2022/02/25 04:16:49;;;;;;;5.70;1.48;;;8.70;1.00;;;;;;5037125;28;20100;-74
2022/02/25 04:19:16;;;;;;;4.40;1.58;;;8.70;1.00;;;;;;5037096;28;20048;-75
2022/02/25 04:21:43;;;;;;;4.90;1.60;;;8.70;1.00;;;;;;5037360;28;20035;-75
2022/02/25 04:24:09;;;;;;;4.13;1.42;;;8.80;1.00;;;;;;5037231;28;20508;-74
2022/02/25 04:26:35;;;;;;;5.70;1.88;;;8.80;1.00;;;;;;5037227;28;20037;-73
2022/02/25 04:29:02;;;;;;;4.45;1.75;;;8.80;1.00;;;;;;5037071;28;20129;-75
2022/02/25 04:31:27;;;;;;;7.72;1.73;;;8.70;1.00;;;;;;5037237;28;20037;-75
2022/02/25 04:33:53;;;;;;;4.00;1.48;;;8.70;1.00;;;;;;5037133;28;20048;-75
2022/02/25 04:36:22;;;;;;;3.97;1.30;;;8.60;1.00;;;;;;5036761;28;20029;-75
2022/02/25 04:38:52;;;;;;;4.65;1.55;;;8.70;1.00;;;;;;5036682;28;20042;-75
2022/02/25 04:41:20;;;;;;;3.60;1.75;;;8.70;1.00;;;;;;5037081;28;20086;-75
2022/02/25 04:43:46;;;;;;;4.47;1.55;;;8.70;1.00;;;;;;5036953;28;20081;-75
2022/02/25 04:46:20;;;;;;;7.22;1.75;;;8.70;1.00;;;;;;5036449;28;20052;-75
2022/02/25 04:48:46;;;;;;;4.53;1.30;;;8.80;1.00;;;;;;5037121;28;20179;-75
2022/02/25 04:51:17;;;;;;;5.47;1.90;;;8.70;1.00;;;;;;5036951;28;20033;-75
2022/02/25 04:53:44;;;;;;;4.88;1.70;;;8.70;1.00;;;;;;5037028;28;20077;-75
2022/02/25 04:56:10;;;;;;;6.60;1.60;;;8.70;1.00;;;;;;5036316;28;20049;-75
2022/02/25 04:58:37;;;;;;;8.52;1.98;;;8.70;1.00;;;;;;5036651;28;20105;-74
2022/02/25 05:01:03;;;;;;;4.43;1.70;;;8.70;1.00;;;;;;5037009;28;20076;-74
2022/02/25 05:03:29;;;;;;;4.80;1.67;;;8.60;1.00;;;;;;5037023;28;20128;-74
2022/02/25 05:05:55;;;;;;;5.43;1.67;;;8.60;1.00;;;;;;5036871;28;20103;-74
2022/02/25 05:08:22;;;;;;;2.92;1.50;;;8.50;1.00;;;;;;5036820;28;20064;-74
2022/02/25 05:10:47;;;;;;;4.00;2.15;;;8.60;1.00;;;;;;5036838;28;20045;-75
2022/02/25 05:13:13;;;;;;;5.68;1.67;;;8.50;1.00;;;;;;5036553;28;20117;-75
2022/02/25 05:21:08;;;;;;;5.25;1.58;;;8.50;1.00;;;;;;5036067;28;20195;-75
2022/02/25 05:23:33;;;;;;;5.60;1.85;;;8.50;1.00;;;;;;5036496;28;20069;-75
2022/02/25 05:25:59;;;;;;;5.20;1.40;;;8.50;1.00;;;;;;5036458;28;20423;-75
2022/02/25 05:28:25;;;;;;;4.70;1.73;;;8.50;1.00;;;;;;5036412;28;20037;-74
2022/02/25 05:30:51;;;;;;;3.38;1.20;;;8.50;1.00;;;;;;5036395;28;20095;-75
2022/02/25 05:33:17;;;;;;;4.70;1.38;;;8.40;1.00;;;;;;5036544;28;20044;-75
2022/02/25 05:35:43;;;;;;;4.32;1.17;;;8.40;1.00;;;;;;5035958;28;20056;-75
2022/02/25 05:38:08;;;;;;;2.72;1.25;;;8.30;1.00;;;;;;5035383;28;20487;-74
2022/02/25 05:40:35;;;;;;;6.75;1.70;;;8.20;1.00;;;;;;5036157;28;20049;-75
2022/02/25 05:43:01;;;;;;;5.18;1.63;;;8.20;1.00;;;;;;5036109;28;20045;-75
2022/02/25 05:45:27;;;;;;;9.10;2.75;;;8.20;1.00;;;;;;5035851;28;20051;-75
2022/02/25 05:47:54;;;;;;;6.03;2.08;;;8.10;1.00;;;;;;5036566;28;20045;-75
2022/02/25 05:50:22;;;;;;;9.68;2.17;;;8.10;1.00;;;;;;5036010;28;20041;-75
2022/02/25 05:52:48;;;;;;;6.90;1.30;;;8.00;1.00;;;;;;5036125;28;20048;-75
2022/02/25 05:55:16;;;;;;;8.43;1.52;;;8.00;1.00;;;;;;5035719;28;20051;-75
2022/02/25 05:57:42;;;;;;;5.70;1.45;;;8.00;1.00;;;;;;5035848;28;20112;-75
2022/02/25 06:00:10;;;;;;;5.88;1.38;;;8.00;1.00;;;;;;5035601;28;20057;-75
2022/02/25 06:02:36;;;;;;;7.13;1.88;;;7.90;1.00;;;;;;5035476;28;20037;-73
2022/02/25 06:05:03;;;;;;;6.05;1.30;;;7.90;1.00;;;;;;5035102;28;20087;-74
2022/02/25 06:07:29;;;;;;;8.95;1.95;;;7.90;1.00;;;;;;5035894;28;20485;-74
2022/02/25 06:09:55;;;;;;;6.82;1.88;;;7.80;1.00;;;;;;5035272;28;20045;-74
2022/02/25 06:12:21;;;;;;;5.53;1.77;;;7.70;1.00;;;;;;5035019;28;20037;-74
2022/02/25 06:14:47;;;;;;;7.80;1.50;;;7.70;1.00;;;;;;5037039;28;20060;-73
2022/02/25 06:17:13;;;;;;;15.75;2.35;;;7.70;1.00;;;;;;5036466;28;20480;-73
2022/02/25 06:19:39;;;;;;;7.22;2.08;;;7.60;1.00;;;;;;5034457;28;20037;-74
2022/02/25 06:22:05;;;;;;;9.88;1.80;;;7.40;1.00;;;;;;5035082;28;20037;-74
2022/02/25 06:24:31;;;;;;;5.45;2.28;;;7.50;1.00;;;;;;5034973;28;20075;-74
2022/02/25 06:26:57;;;;;;;10.93;1.73;;;7.40;1.00;;;;;;5035022;28;20034;-73
2022/02/25 06:29:23;;;;;;;5.93;1.50;;;7.30;1.00;;;;;;5035155;28;20041;-75
2022/02/25 06:31:49;;;;;;;6.72;1.80;;;7.30;1.00;;;;;;5034950;28;20041;-74
2022/02/25 06:34:15;;;;;;;5.40;1.50;;;7.20;1.00;;;;;;5017030;28;20033;-74
2022/02/25 06:36:41;;;;;;;4.90;1.33;;;7.20;1.00;;;;;;5035128;28;20124;-74
2022/02/25 06:39:08;;;;;;;7.78;1.20;;;7.30;1.00;;;;;;5034757;28;20041;-74
2022/02/25 06:41:34;;;;;;;6.55;1.42;;;7.30;1.00;;;;;;5016862;28;20071;-74
2022/02/25 06:44:00;;;;;;;7.38;1.85;;;7.30;1.00;;;;;;5016848;28;20033;-74
2022/02/25 06:46:26;;;;;;;6.32;1.67;;;7.30;1.00;;;;;;5034314;28;20033;-74
2022/02/25 06:48:52;;;;;;;6.68;2.50;;;7.40;1.00;;;;;;5033893;28;20480;-74
2022/02/25 06:51:18;;;;;;;7.03;1.80;;;7.30;1.00;;;;;;5034725;28;20037;-72
2022/02/25 06:53:44;;;;;;;5.45;1.48;;;7.20;1.00;;;;;;5034443;28;20378;-74
2022/02/25 06:56:10;;;;;;;5.03;1.35;;;7.20;1.00;;;;;;5034167;28;20048;-74
2022/02/25 06:58:36;;;;;;;9.20;1.70;;;7.20;1.00;;;;;;5025688;28;20038;-72
2022/02/25 07:01:05;;;;;;;5.88;1.23;;;7.20;1.00;;;;;;5014277;28;20535;-75
2022/02/25 07:03:31;;;;;;;5.85;1.38;;;7.30;1.00;;;;;;5022905;28;20064;-75
2022/02/25 07:05:57;;;;;;;5.55;1.13;;;7.30;1.00;;;;;;5034458;28;20049;-75
2022/02/25 07:08:24;;;;;;;3.85;0.98;;;7.40;1.00;;;;;;5020206;28;20034;-75
2022/02/25 07:10:50;;;;;;;5.82;1.42;;;7.40;1.00;;;;;;5016371;28;20049;-74
2022/02/25 07:13:17;;;;;;;4.88;1.27;;;7.50;1.00;;;;;;5023966;28;20532;-75
2022/02/25 07:15:42;;;;;;;4.75;1.70;;;7.40;1.00;;;;;;5014166;28;20048;-75
2022/02/25 07:18:09;;;;;;;6.60;1.50;;;7.40;1.00;;;;;;5014251;28;20034;-75
2022/02/25 07:20:36;;;;;;;4.75;1.02;;;7.40;1.00;;;;;;5028182;28;20037;-75
2022/02/25 07:23:03;;;;;;;4.68;1.10;;;7.40;1.00;;;;;;5033118;28;20038;-75
2022/02/25 07:25:29;;;;;;;7.65;1.52;;;7.50;1.00;;;;;;5032176;28;20495;-75
2022/02/25 07:27:55;;;;;;;8.57;1.77;;;7.40;1.00;;;;;;5022811;28;20037;-74
2022/02/25 07:30:22;;;;;;;4.18;1.17;;;7.50;1.00;;;;;;5034274;28;20042;-73
2022/02/25 07:32:48;;;;;;;6.70;1.70;;;7.60;1.00;;;;;;5021712;28;20072;-73
2022/02/25 07:35:14;;;;;;;5.25;1.05;;;7.60;1.00;;;;;;5014405;28;20048;-73
2022/02/25 07:37:41;;;;;;;3.53;0.90;;;7.70;1.00;;;;;;5014257;28;20045;-73
2022/02/25 07:40:08;;;;;;;5.70;1.50;;;7.70;1.00;;;;;;5014779;28;20053;-73
2022/02/25 07:42:35;;;;;;;5.75;1.33;;;7.80;1.00;;;;;;5014119;28;20036;-73
2022/02/25 07:45:01;;;;;;;4.25;1.08;;;7.80;1.00;;;;;;5027853;28;20057;-72
2022/02/25 07:47:27;;;;;;;4.00;1.05;;;7.90;1.00;;;;;;5025028;28;20042;-74
2022/02/25 07:49:54;;;;;;;5.97;1.10;;;7.80;1.00;;;;;;5014626;28;20046;-73
2022/02/25 07:52:20;;;;;;;7.50;1.30;;;7.80;1.00;;;;;;5017996;28;20037;-74
2022/02/25 07:54:47;;;;;;;8.57;1.63;;;7.80;1.00;;;;;;5016638;28;20057;-73
2022/02/25 07:57:14;;;;;;;7.95;1.15;;;7.90;1.00;;;;;;5015804;28;20037;-73
2022/02/25 07:59:43;;;;;;;7.43;1.58;;;7.80;1.00;;;;;;5021940;28;20049;-73
2022/02/25 08:02:09;;;;;;;8.82;2.17;;;7.90;1.00;;;;;;5025000;28;20112;-73
2022/02/25 08:04:35;;;;;;;5.28;1.13;;;7.80;1.00;;;;;;5033069;28;20150;-73
2022/02/25 08:07:01;;;;;;;4.90;1.55;;;7.80;1.00;;;;;;5027376;28;20511;-73
2022/02/25 08:09:27;;;;;;;6.60;1.30;;;7.80;1.00;;;;;;5020383;28;20050;-73
2022/02/25 08:11:53;;;;;;;7.60;1.45;;;8.00;1.00;;;;;;5025877;28;20033;-70
2022/02/25 08:14:19;;;;;;;6.68;1.55;;;8.10;1.00;;;;;;5014409;28;20050;-71
2022/02/25 08:16:45;;;;;;;7.93;1.30;;;8.10;1.00;;;;;;5028824;28;20030;-72
2022/02/25 08:19:11;;;;;;;4.95;1.25;;;8.10;1.00;;;;;;5035763;28;20034;-71
2022/02/25 08:21:37;;;;;;;5.13;1.63;;;8.10;1.00;;;;;;5025522;28;20148;-71
2022/02/25 08:24:04;;;;;;;5.65;1.30;;;8.20;1.00;;;;;;5027237;28;20053;-71
2022/02/25 08:26:31;;;;;;;8.32;1.58;;;8.10;1.00;;;;;;5028734;28;20041;-70
2022/02/25 08:28:57;;;;;;;5.95;1.70;;;8.30;1.00;;;;;;5026136;28;20037;-69
2022/02/25 08:31:23;;;;;;;5.35;1.65;;;8.30;1.00;;;;;;5035556;28;20562;-68
2022/02/25 08:33:50;;;;;;;6.15;1.40;;;8.20;1.00;;;;;;5037161;28;20056;-69
2022/02/25 08:36:18;;;;;;;5.85;1.50;;;8.30;1.00;;;;;;5034396;28;20071;-69
2022/02/25 08:38:45;;;;;;;7.10;1.67;;;8.20;1.00;;;;;;5037101;28;20041;-69
2022/02/25 08:41:10;;;;;;;6.38;1.42;;;8.20;1.00;;;;;;5021597;28;20041;-69
2022/02/25 08:43:36;;;;;;;4.38;1.40;;;8.30;1.00;;;;;;5017008;28;20042;-69
2022/02/25 08:46:02;;;;;;;4.93;1.30;;;8.30;1.00;;;;;;5031749;28;20037;-69
2022/02/25 08:48:29;;;;;;;8.45;1.50;;;8.40;1.00;;;;;;5037156;28;20041;-69
2022/02/25 08:50:55;;;;;;;8.90;1.95;;;8.40;1.00;;;;;;5036541;28;20063;-70
2022/02/25 08:53:21;;;;;;;7.72;1.80;;;8.30;1.00;;;;;;5036687;28;20523;-70
2022/02/25 08:55:47;;;;;;;7.95;2.13;;;8.50;1.00;;;;;;5017604;28;20041;-70
2022/02/25 08:58:13;;;;;;;6.57;1.30;;;8.40;1.00;;;;;;4999655;28;20128;-69
2022/02/25 09:00:40;;;;;;;3.88;1.52;;;8.50;1.00;;;;;;5016571;28;20054;-70
2022/02/25 09:03:06;;;;;;;5.35;1.20;;;8.40;1.00;;;;;;5020067;28;20056;-69
2022/02/25 09:05:32;;;;;;;9.35;1.77;;;8.40;1.00;;;;;;5033310;28;20046;-69
2022/02/25 09:07:58;;;;;;;7.40;1.45;;;8.60;1.00;;;;;;5031671;28;20029;-70
2022/02/25 09:10:25;;;;;;;4.60;1.15;;;8.70;1.00;;;;;;5025652;28;20046;-69
2022/02/25 09:12:51;;;;;;;5.38;1.73;;;8.50;1.00;;;;;;5018357;28;20045;-70
2022/02/25 09:15:23;;;;;;;4.93;1.48;;;8.60;1.00;;;;;;5022767;28;20049;-70
2022/02/25 09:17:51;;;;;;;5.68;1.58;;;8.50;1.00;;;;;;5026521;28;20053;-70
2022/02/25 09:20:20;;;;;;;6.53;1.50;;;8.70;1.00;;;;;;5035238;28;20041;-70
2022/02/25 09:22:46;;;;;;;6.28;1.35;;;8.70;1.00;;;;;;5025118;28;20034;-69
2022/02/25 09:25:12;;;;;;;4.47;1.17;;;8.50;1.00;;;;;;5016314;28;20046;-70
2022/02/25 09:27:39;;;;;;;5.47;1.67;;;8.50;1.00;;;;;;5023459;28;20053;-70
2022/02/25 09:30:08;;;;;;;4.45;1.40;;;8.40;1.00;;;;;;5023060;28;20041;-70
2022/02/25 09:32:35;;;;;;;5.60;1.38;;;8.50;1.00;;;;;;5028629;28;20518;-69
2022/02/25 09:35:01;;;;;;;5.65;1.38;;;8.50;1.00;;;;;;5035278;28;20049;-69
2022/02/25 09:37:27;;;;;;;2.75;1.02;;;8.60;1.00;;;;;;5033561;28;20072;-69
2022/02/25 09:39:53;;;;;;;5.70;1.17;;;8.70;1.00;;;;;;5015944;28;20042;-70
2022/02/25 09:42:22;;;;;;;5.10;1.40;;;8.90;1.00;;;;;;5018372;28;20034;-70
2022/02/25 09:44:48;;;;;;;5.10;1.70;;;8.90;1.00;;;;;;5030338;28;20099;-69
2022/02/25 09:47:18;;;;;;;3.08;1.27;;;8.90;1.00;;;;;;5028944;28;20058;-70
2022/02/25 09:49:44;;;;;;;2.83;1.00;;;9.20;1.00;;;;;;5021859;28;20041;-70
2022/02/25 09:52:15;;;;;;;6.38;1.60;;;9.30;1.00;;;;;;5020189;28;20056;-70
2022/02/25 09:54:42;;;;;;;6.65;1.70;;;9.20;1.00;;;;;;5018705;28;20049;-70
2022/02/25 09:57:08;;;;;;;5.65;1.60;;;9.10;1.00;;;;;;5018576;28;20064;-70
2022/02/25 09:59:34;;;;;;;6.18;3.92;;;9.10;1.00;;;;;;5023186;28;20432;-70
2022/02/25 10:02:05;;;;;;;5.20;1.20;;;9.20;1.00;;;;;;5033112;28;20064;-69
2022/02/25 10:04:31;;;;;;;6.05;1.73;;;9.30;1.00;;;;;;5032474;28;20049;-70
2022/02/25 10:06:58;;;;;;;3.67;1.35;;;9.50;1.00;;;;;;5015963;28;20500;-70
2022/02/25 10:09:34;;;;;;;4.13;1.10;;;9.30;1.00;;;;;;5014872;28;20393;-70
2022/02/25 10:12:12;;;;;;;5.05;1.40;;;9.00;1.00;;;;;;5022023;28;20042;-70
2022/02/25 10:14:43;;;;;;;7.18;1.35;;;9.00;1.00;;;;;;5019797;28;20103;-69
2022/02/25 10:17:10;;;;;;;;;;;9.20;1.00;;;;;;5032358;28;20052;-70
2022/02/25 10:19:37;;;;;;;7.28;1.42;;;9.40;1.00;;;;;;5017764;28;19940;-70
2022/02/25 10:22:35;;;;;;;5.32;1.40;;;8.90;1.00;;;;;;5019134;28;20504;-70
2022/02/25 10:25:09;;;;;;;7.63;1.20;;;8.80;1.00;;;;;;4996943;28;20183;-70
2022/02/25 10:27:41;;;;;;;5.93;0.90;;;8.80;1.00;;;;;;5027981;28;20515;-70
2022/02/25 10:30:09;;;;;;;4.70;1.38;;;9.40;1.00;;;;;;5019230;28;20547;-70
2022/02/25 10:32:42;;;;;;;5.80;1.45;;;9.60;1.00;;;;;;5025262;28;20054;-69
2022/02/25 10:35:34;;;;;;;3.90;1.40;;;9.30;1.00;;;;;;5014671;28;20133;-77
2022/02/25 10:38:09;;;;;;;4.53;1.13;;;9.10;1.00;;;;;;5014408;28;20034;-70
2022/02/25 10:40:46;;;;;;;4.25;1.60;;;9.20;1.00;;;;;;5030507;28;20041;-69
2022/02/25 10:43:17;;;;;;;4.95;1.55;;;9.30;1.00;;;;;;5032707;28;20571;-70
2022/02/25 10:45:46;;;;;;;6.80;1.55;;;9.30;1.00;;;;;;5034223;28;20041;-70
2022/02/25 10:48:14;;;;;;;5.65;1.30;;;9.20;1.00;;;;;;5034565;28;20033;-70
2022/02/25 10:51:07;;;;;;;4.38;1.52;;;9.30;1.00;;;;;;5034309;28;20614;-70
2022/02/25 10:53:49;;;;;;;7.22;1.55;;;9.20;1.00;;;;;;5023866;28;20573;-69
2022/02/25 10:56:18;;;;;;;5.82;1.70;;;9.10;1.00;;;;;;5017073;28;20046;-69
2022/02/25 10:58:46;;;;;;;7.45;1.40;;;9.00;1.00;;;;;;5031056;28;20034;-69
2022/02/25 11:01:13;;;;;;;6.97;1.30;;;9.00;1.00;;;;;;5033351;28;20049;-69
2022/02/25 11:03:57;;;;;;;3.03;1.17;;;9.10;1.00;;;;;;5033189;28;20536;-69
2022/02/25 11:06:24;;;;;;;5.38;1.38;;;9.00;1.00;;;;;;5018805;28;20042;-69
2022/02/25 11:08:52;;;;;;;6.45;1.38;;;9.00;1.00;;;;;;5034163;28;20033;-69
2022/02/25 11:11:20;;;;;;;3.22;1.10;;;9.20;1.00;;;;;;5024041;28;20033;-70
2022/02/25 11:13:48;;;;;;;4.85;1.42;;;9.60;1.00;;;;;;5032258;28;20060;-70
2022/02/25 11:16:16;;;;;;;4.85;1.27;;;9.80;1.00;;;;;;5033442;28;20042;-69
2022/02/25 11:18:46;;;;;;;6.10;1.73;;;9.80;1.00;;;;;;5028995;28;20061;-69
2022/02/25 11:21:13;;;;;;;2.58;0.82;;;9.60;1.00;;;;;;5031610;28;20038;-69
2022/02/25 11:23:43;;;;;;;6.10;1.25;;;9.50;1.00;;;;;;5033867;28;20064;-69
2022/02/25 11:26:10;;;;;;;2.97;1.20;;;9.60;1.00;;;;;;5031938;28;20041;-70
2022/02/25 11:28:37;;;;;;;2.42;0.90;;;9.50;1.00;;;;;;5033673;28;20431;-69
2022/02/25 11:31:11;;;;;;;5.03;1.52;;;9.30;1.00;;;;;;5033144;28;20041;-70
2022/02/25 11:33:38;;;;;;;3.80;1.08;;;9.10;1.00;;;;;;5028953;28;20076;-69
2022/02/25 11:36:10;;;;;;;4.38;1.10;;;9.20;1.00;;;;;;5031478;28;20080;-69
2022/02/25 11:38:41;;;;;;;15.50;9.00;;;9.20;1.00;;;;;;5027717;28;20042;-69
2022/02/25 11:41:22;;;;;;;16.17;10.70;;;9.30;1.00;;;;;;5017611;28;20045;-69
2022/02/25 11:44:01;;;;;;;7.50;2.08;;;9.10;1.00;;;;;;5024260;28;20045;-69
2022/02/25 11:46:31;;;;;;;4.40;1.73;;;9.20;1.00;;;;;;5035164;28;20099;-69
2022/02/25 11:49:03;;;;;;;5.80;1.80;;;9.40;1.00;;;;;;5020280;28;20034;-69
2022/02/25 11:51:39;;;;;;;3.05;1.67;;;9.50;1.00;;;;;;5036511;28;20046;-69
2022/02/25 11:54:31;;;;;;;2.72;1.50;;;9.60;1.00;;;;;;5026235;28;20041;-69
2022/02/25 11:56:58;;;;;;;5.07;1.20;;;9.50;1.00;;;;;;5032638;28;20046;-67
2022/02/25 11:59:33;;;;;;;3.50;1.33;;;9.50;1.00;;;;;;5027706;28;20503;-69
2022/02/25 12:02:04;;;;;;;14.48;10.23;;;9.50;1.00;;;;;;5021771;28;20047;-68
2022/02/25 12:04:32;;;;;;;5.50;1.55;;;9.30;1.00;;;;;;5029312;28;20095;-68
2022/02/25 12:07:02;;;;;;;9.48;5.45;;;9.40;1.00;;;;;;5029860;28;20124;-69
2022/02/25 12:09:50;;;;;;;4.07;1.20;;;9.50;1.00;;;;;;5033870;28;20050;-69
2022/02/25 12:12:28;;;;;;;3.53;1.45;;;9.50;1.00;;;;;;5021847;28;20063;-69
2022/02/25 12:15:14;;;;;;;5.65;1.50;;;9.70;1.00;;;;;;5032031;28;20053;-69
2022/02/25 12:18:02;;;;;;;19.13;5.72;;;9.70;1.00;;;;;;5037605;28;20037;-69
2022/02/25 12:20:35;;;;;;;3.38;1.02;;;9.50;1.00;;;;;;5032613;28;20045;-69
2022/02/25 12:23:15;;;;;;;5.47;3.63;;;9.40;1.00;;;;;;5034987;28;20199;-69
2022/02/25 12:25:41;;;;;;;4.05;1.10;;;9.40;1.00;;;;;;5026052;28;20080;-69
2022/02/25 12:28:28;;;;;;;4.05;1.40;;;9.50;1.00;;;;;;5032441;28;20038;-69
2022/02/25 12:30:55;;;;;;;16.58;11.88;;;9.50;1.00;;;;;;5031822;28;20120;-70
2022/02/25 12:33:33;;;;;;;16.75;10.65;;;9.50;1.00;;;;;;5034293;28;20517;-69
2022/02/25 12:36:01;;;;;;;4.82;1.73;;;9.60;1.00;;;;;;5036727;28;20077;-69
2022/02/25 12:38:31;;;;;;;4.88;1.20;;;9.50;1.00;;;;;;5030706;28;20128;-70
2022/02/25 12:41:18;;;;;;;3.38;0.82;;;9.60;1.00;;;;;;5025479;28;20045;-70
2022/02/25 12:43:58;;;;;;;4.68;1.55;;;9.60;1.00;;;;;;5036467;28;20033;-70
2022/02/25 12:46:30;;;;;;;3.90;1.30;;;9.70;1.00;;;;;;5035038;28;20143;-70
2022/02/25 12:48:56;;;;;;;3.42;1.05;;;9.80;1.00;;;;;;5036200;28;20045;-69
2022/02/25 12:51:24;;;;;;;4.68;1.10;;;9.80;1.00;;;;;;5036976;28;20053;-69
2022/02/25 12:53:55;;;;;;;2.35;1.30;;;9.80;1.00;;;;;;5036553;28;20034;-70
2022/02/25 12:56:32;;;;;;;7.47;1.83;;;10.10;1.00;;;;;;5035448;28;20056;-70
2022/02/25 12:59:05;;;;;;;2.72;0.93;;;10.20;1.00;;;;;;5034372;28;20046;-70
2022/02/25 13:01:33;;;;;;;7.57;1.40;;;10.10;1.00;;;;;;5034831;28;20057;-69
2022/02/25 13:04:06;;;;;;;5.75;1.60;;;10.20;1.00;;;;;;5031007;28;20116;-70
2022/02/25 13:06:37;;;;;;;8.75;4.25;;;10.10;1.00;;;;;;5029148;28;20195;-69
2022/02/25 13:09:10;;;;;;;3.90;1.83;;;10.20;1.00;;;;;;5035624;28;20117;-69
2022/02/25 13:11:37;;;;;;;14.80;10.32;;;10.30;1.00;;;;;;5033683;28;20507;-70
2022/02/25 13:14:24;;;;;;;4.55;1.17;;;10.30;1.00;;;;;;5016333;28;20037;-70
2022/02/25 13:17:27;;;;;;;6.45;1.90;;;10.30;1.00;;;;;;5016430;28;20139;-72